Time;durP1;ratioP1;P1;durP2;ratioP2;P2;SDS_P1;SDS_P2;PMS_P1;PMS_P2;Temp;Humidity;BMP_temperature;BMP_pressure;BME280_temperature;BME280_humidity;BME280_pressure;Samples;Min_cycle;Max_cycle;Signal;HPM_P1;HPM_P2
2023/05/11 00:00:36;;;;;;;3.17;2.00;;;9.70;99.90;;;;;;4884808;29;20115;-93
2023/05/11 00:03:01;;;;;;;6.85;2.15;;;9.70;99.90;;;;;;4884881;29;20083;-93
2023/05/11 00:05:27;;;;;;;4.75;1.92;;;9.70;99.90;;;;;;4901263;29;20040;-93
2023/05/11 00:07:53;;;;;;;6.47;1.98;;;9.60;99.90;;;;;;4884566;29;20021;-93
2023/05/11 00:10:18;;;;;;;5.97;2.00;;;9.60;99.90;;;;;;4884548;29;20033;-93
2023/05/11 00:12:44;;;;;;;2.92;1.95;;;9.60;99.90;;;;;;4884401;29;20119;-93
2023/05/11 00:15:10;;;;;;;3.47;2.15;;;9.60;99.90;;;;;;4884074;29;20025;-94
2023/05/11 00:17:35;;;;;;;6.80;2.28;;;9.50;99.90;;;;;;4884006;29;20052;-93
2023/05/11 00:20:02;;;;;;;6.00;2.97;;;9.50;99.90;;;;;;4883927;29;20123;-93
2023/05/11 00:22:27;;;;;;;4.55;2.50;;;9.50;99.90;;;;;;4884153;29;20501;-93
2023/05/11 00:24:53;;;;;;;4.45;3.13;;;9.40;99.90;;;;;;4883641;29;20025;-93
2023/05/11 00:27:19;;;;;;;7.32;3.28;;;9.40;99.90;;;;;;4883528;29;20032;-93
2023/05/11 00:29:44;;;;;;;4.90;2.85;;;9.30;99.90;;;;;;4884489;29;20029;-94
2023/05/11 00:32:10;;;;;;;4.90;2.50;;;9.30;99.90;;;;;;4886008;29;20127;-93
2023/05/11 00:34:36;;;;;;;4.20;2.40;;;9.20;99.90;;;;;;4884016;29;20037;-92
2023/05/11 00:37:02;;;;;;;6.40;2.67;;;9.20;99.90;;;;;;4884679;29;20084;-93
2023/05/11 00:39:27;;;;;;;6.45;2.15;;;9.20;99.90;;;;;;4884230;29;20031;-94
2023/05/11 00:41:53;;;;;;;7.80;3.20;;;9.30;99.90;;;;;;4884358;29;20136;-93
2023/05/11 00:44:18;;;;;;;6.57;2.58;;;9.20;99.90;;;;;;4884069;29;20032;-93
2023/05/11 00:46:44;;;;;;;5.00;2.45;;;9.30;99.90;;;;;;4884302;29;20028;-92
2023/05/11 00:49:10;;;;;;;8.65;2.95;;;9.30;99.90;;;;;;4884010;29;20036;-93
2023/05/11 00:51:37;;;;;;;5.38;2.40;;;9.30;99.90;;;;;;4884462;29;20052;-93
2023/05/11 00:54:02;;;;;;;4.60;2.60;;;9.30;99.90;;;;;;4883580;29;20032;-93
2023/05/11 00:56:28;;;;;;;8.60;2.90;;;9.20;99.90;;;;;;4883898;29;20061;-94
2023/05/11 00:58:54;;;;;;;6.63;2.40;;;9.30;99.90;;;;;;4883748;29;20478;-94
2023/05/11 01:01:20;;;;;;;4.88;3.55;;;9.20;99.90;;;;;;4883902;29;20119;-93
2023/05/11 01:03:46;;;;;;;3.25;2.60;;;9.10;99.90;;;;;;4883834;29;20029;-92
2023/05/11 01:06:28;;;;;;;3.55;2.67;;;9.10;99.90;;;;;;4884515;29;20100;-92
2023/05/11 01:09:04;;;;;;;9.30;3.13;;;9.00;99.90;;;;;;4886384;29;20037;-92
2023/05/11 01:11:41;;;;;;;7.53;2.83;;;9.00;99.90;;;;;;4881788;29;20048;-93
2023/05/11 01:14:13;;;;;;;6.43;2.60;;;9.00;99.90;;;;;;4865576;29;20021;-92
2023/05/11 01:16:43;;;;;;;3.85;2.65;;;9.00;99.90;;;;;;4865436;29;20063;-94
2023/05/11 01:19:27;;;;;;;6.97;2.72;;;9.00;99.90;;;;;;4865310;29;20025;-93
2023/05/11 01:21:53;;;;;;;9.05;3.22;;;9.00;99.90;;;;;;4865396;29;20097;-93
2023/05/11 01:24:25;;;;;;;4.47;2.75;;;9.00;99.90;;;;;;4864854;29;20433;-92
2023/05/11 01:27:12;;;;;;;5.35;2.78;;;9.00;99.90;;;;;;4865429;29;20029;-92
2023/05/11 01:30:15;;;;;;;7.40;3.10;;;9.00;99.90;;;;;;4865321;29;20035;-93
2023/05/11 01:32:43;;;;;;;7.07;3.10;;;9.00;99.90;;;;;;4870955;29;20033;-92
2023/05/11 01:35:18;;;;;;;6.78;3.30;;;9.00;99.90;;;;;;4876296;29;20037;-92
2023/05/11 01:37:52;;;;;;;5.38;2.80;;;9.00;99.90;;;;;;4890279;29;20111;-93
2023/05/11 01:40:22;;;;;;;17.88;4.13;;;9.10;99.90;;;;;;4865209;29;20044;-93
2023/05/11 01:42:52;;;;;;;5.93;3.03;;;9.00;99.90;;;;;;4864728;29;20076;-93
2023/05/11 01:45:18;;;;;;;5.47;2.92;;;9.10;99.90;;;;;;4864956;29;20032;-93
2023/05/11 01:47:47;;;;;;;7.03;3.05;;;9.00;99.90;;;;;;4865725;29;20036;-94
2023/05/11 01:50:15;;;;;;;6.00;2.80;;;9.00;99.90;;;;;;4866316;29;20399;-92
2023/05/11 01:52:42;;;;;;;5.93;3.22;;;9.00;99.90;;;;;;4866235;29;20037;-95
2023/05/11 01:55:10;;;;;;;6.07;2.50;;;9.00;99.90;;;;;;4865896;29;20029;-93
2023/05/11 01:57:37;;;;;;;6.97;3.10;;;9.00;99.90;;;;;;4866688;29;20487;-94
2023/05/11 02:00:04;;;;;;;4.88;3.00;;;8.90;99.90;;;;;;4871084;29;20025;-93
2023/05/11 02:02:31;;;;;;;6.78;2.67;;;9.00;99.90;;;;;;4876667;29;20040;-93
2023/05/11 02:04:58;;;;;;;9.45;3.00;;;9.00;99.90;;;;;;4885967;29;20100;-93
2023/05/11 02:07:26;;;;;;;4.68;2.63;;;9.00;99.90;;;;;;4886247;29;20014;-92
2023/05/11 02:09:53;;;;;;;7.25;3.00;;;9.00;99.90;;;;;;4882829;29;20057;-93
2023/05/11 02:12:21;;;;;;;8.88;3.20;;;9.00;99.90;;;;;;4881741;29;20066;-93
2023/05/11 02:14:48;;;;;;;4.15;3.05;;;9.00;99.90;;;;;;4883084;29;20021;-93
2023/05/11 02:17:16;;;;;;;4.07;2.92;;;9.00;99.90;;;;;;4876214;29;20033;-94
2023/05/11 02:19:44;;;;;;;7.97;3.33;;;8.90;99.90;;;;;;4870505;29;20037;-95
2023/05/11 02:22:11;;;;;;;5.72;3.42;;;8.90;99.90;;;;;;4868002;29;20033;-94
2023/05/11 02:24:37;;;;;;;5.90;3.15;;;8.90;99.90;;;;;;4867274;29;20025;-94
2023/05/11 02:27:04;;;;;;;4.10;3.17;;;8.90;99.90;;;;;;4866806;29;20052;-94
2023/05/11 02:29:29;;;;;;;7.15;3.10;;;8.90;99.90;;;;;;4866972;29;20044;-94
2023/05/11 02:32:02;;;;;;;6.32;2.95;;;8.90;99.90;;;;;;4870849;29;20041;-93
2023/05/11 02:34:33;;;;;;;6.57;2.90;;;8.90;99.90;;;;;;4866300;29;20025;-92
2023/05/11 02:37:03;;;;;;;6.15;3.20;;;8.90;99.90;;;;;;4865822;29;20045;-94
2023/05/11 02:39:35;;;;;;;4.32;2.60;;;9.00;99.90;;;;;;4865555;29;20021;-93
2023/05/11 02:42:09;;;;;;;8.18;2.75;;;9.00;99.90;;;;;;4864383;29;20021;-94
2023/05/11 02:44:36;;;;;;;7.82;2.70;;;9.00;99.90;;;;;;4865191;29;20033;-93
2023/05/11 02:47:05;;;;;;;5.15;2.67;;;9.00;99.90;;;;;;4864634;29;20037;-93
2023/05/11 02:49:33;;;;;;;6.07;3.55;;;9.10;99.90;;;;;;4866914;29;20169;-93
2023/05/11 02:52:00;;;;;;;6.85;3.15;;;9.00;99.90;;;;;;4869415;29;20048;-93
2023/05/11 02:54:27;;;;;;;10.70;3.33;;;9.10;99.90;;;;;;4868998;29;20408;-94
2023/05/11 02:56:55;;;;;;;7.03;3.00;;;9.10;99.90;;;;;;4865958;29;20430;-93
2023/05/11 02:59:21;;;;;;;8.50;3.90;;;9.10;99.90;;;;;;4864162;29;20469;-94
2023/05/11 03:01:47;;;;;;;8.65;3.58;;;9.20;99.90;;;;;;4864752;29;20033;-93
2023/05/11 03:04:13;;;;;;;5.95;3.92;;;9.20;99.90;;;;;;4864689;29;20068;-94
2023/05/11 03:06:39;;;;;;;6.00;3.03;;;9.20;99.90;;;;;;4864288;29;20092;-94
2023/05/11 03:09:05;;;;;;;5.85;3.75;;;9.20;99.90;;;;;;4863843;29;20093;-93
2023/05/11 03:11:32;;;;;;;8.60;3.65;;;9.20;99.90;;;;;;4864566;29;20435;-93
2023/05/11 03:13:58;;;;;;;10.35;5.00;;;9.20;99.90;;;;;;4863924;29;20025;-94
2023/05/11 03:16:25;;;;;;;4.35;3.53;;;9.20;99.90;;;;;;4864044;29;20084;-94
2023/05/11 03:18:53;;;;;;;8.07;4.20;;;9.20;99.90;;;;;;4865903;29;20029;-93
2023/05/11 03:21:20;;;;;;;5.72;3.33;;;9.20;99.90;;;;;;4868126;29;20510;-92
2023/05/11 03:23:46;;;;;;;12.85;4.40;;;9.20;99.90;;;;;;4867677;29;20029;-93
2023/05/11 03:26:15;;;;;;;7.28;4.65;;;9.20;99.90;;;;;;4868182;29;20053;-94
2023/05/11 03:28:45;;;;;;;6.55;3.90;;;9.20;99.90;;;;;;4868418;29;20021;-93
2023/05/11 03:31:10;;;;;;;6.40;4.07;;;9.30;99.90;;;;;;4868054;29;20128;-93
2023/05/11 03:33:36;;;;;;;9.25;3.97;;;9.30;99.90;;;;;;4866946;29;20389;-93
2023/05/11 03:36:03;;;;;;;4.53;3.60;;;9.30;99.90;;;;;;4867103;29;20039;-94
2023/05/11 03:38:29;;;;;;;8.02;3.92;;;9.30;99.90;;;;;;4867409;29;20053;-93
2023/05/11 03:40:57;;;;;;;8.93;3.97;;;9.30;99.90;;;;;;4867041;29;20054;-93
2023/05/11 03:43:27;;;;;;;7.60;4.20;;;9.30;99.90;;;;;;4866992;29;20025;-93
2023/05/11 03:45:54;;;;;;;5.65;4.10;;;9.30;99.90;;;;;;4866882;29;20391;-93
2023/05/11 03:48:20;;;;;;;5.68;3.53;;;9.30;99.90;;;;;;4866619;29;20566;-94
2023/05/11 03:50:47;;;;;;;4.47;4.05;;;9.30;99.90;;;;;;4866352;29;20090;-95
2023/05/11 03:53:14;;;;;;;4.82;4.05;;;9.20;99.90;;;;;;4866405;29;20036;-93
2023/05/11 03:55:40;;;;;;;6.72;4.50;;;9.20;99.90;;;;;;4866626;29;20036;-93
2023/05/11 03:58:07;;;;;;;6.35;4.28;;;9.20;99.90;;;;;;4873442;29;20100;-93
2023/05/11 04:00:36;;;;;;;12.20;4.80;;;9.20;99.90;;;;;;4877119;29;20025;-94
2023/05/11 04:03:06;;;;;;;8.57;4.32;;;9.20;99.90;;;;;;4876980;29;20134;-94
2023/05/11 04:05:32;;;;;;;9.20;4.30;;;9.20;99.90;;;;;;4876471;29;20028;-94
2023/05/11 04:07:58;;;;;;;7.57;4.53;;;9.20;99.90;;;;;;4874135;29;20805;-94
2023/05/11 04:10:23;;;;;;;8.73;4.65;;;9.20;99.90;;;;;;4874033;29;20044;-93
2023/05/11 04:12:50;;;;;;;7.20;4.40;;;9.20;99.90;;;;;;4876971;29;20041;-93
2023/05/11 04:15:16;;;;;;;10.18;4.88;;;9.30;99.90;;;;;;4891256;29;20020;-93
2023/05/11 04:17:41;;;;;;;11.82;4.95;;;9.30;99.90;;;;;;4872850;29;20029;-93
2023/05/11 04:20:07;;;;;;;11.65;4.85;;;9.30;99.90;;;;;;4880205;29;20517;-93
2023/05/11 04:22:33;;;;;;;9.68;4.88;;;9.30;99.90;;;;;;4876395;29;20398;-94
2023/05/11 04:24:59;;;;;;;8.23;4.55;;;9.30;99.90;;;;;;4873444;29;20029;-93
2023/05/11 04:27:24;;;;;;;11.10;5.28;;;9.40;99.90;;;;;;4875368;29;20111;-94
2023/05/11 04:29:50;;;;;;;9.00;4.20;;;9.30;99.90;;;;;;4875774;29;20020;-93
2023/05/11 04:32:17;;;;;;;8.45;5.45;;;9.30;99.90;;;;;;4874181;29;20123;-94
2023/05/11 04:34:43;;;;;;;9.02;4.72;;;9.30;99.90;;;;;;4887593;29;20025;-93
2023/05/11 04:37:08;;;;;;;8.52;4.53;;;9.20;99.90;;;;;;4869808;29;20040;-93
2023/05/11 04:39:34;;;;;;;8.25;5.07;;;9.20;99.90;;;;;;4867037;29;20533;-93
2023/05/11 04:42:00;;;;;;;10.18;5.13;;;9.20;99.90;;;;;;4867066;29;20500;-94
2023/05/11 04:44:26;;;;;;;11.48;5.57;;;9.20;99.90;;;;;;4866956;29;20029;-93
2023/05/11 04:46:56;;;;;;;10.73;5.45;;;9.20;99.90;;;;;;4871198;29;20071;-95
2023/05/11 04:49:22;;;;;;;11.95;5.50;;;9.30;99.90;;;;;;4867606;29;20423;-95
2023/05/11 04:51:47;;;;;;;11.77;5.65;;;9.30;99.90;;;;;;4867056;29;20037;-94
2023/05/11 04:54:13;;;;;;;8.60;6.07;;;9.30;99.90;;;;;;4869186;29;20100;-95
2023/05/11 04:56:39;;;;;;;10.20;5.07;;;9.40;99.90;;;;;;4878785;29;20487;-94
2023/05/11 04:59:11;;;;;;;9.98;5.80;;;9.40;99.90;;;;;;4885427;29;20089;-94
2023/05/11 05:01:36;;;;;;;8.73;4.93;;;9.40;99.90;;;;;;4868432;29;20036;-95
2023/05/11 05:04:03;;;;;;;10.80;5.72;;;9.40;99.90;;;;;;4851507;29;20128;-95
2023/05/11 05:06:31;;;;;;;10.73;5.28;;;9.40;99.90;;;;;;4876576;29;20120;-95
2023/05/11 05:08:57;;;;;;;12.25;6.00;;;9.50;99.90;;;;;;4881836;29;20066;-94
2023/05/11 05:11:23;;;;;;;10.93;5.88;;;9.50;99.90;;;;;;4875802;29;20037;-95
2023/05/11 05:13:50;;;;;;;8.50;6.00;;;9.50;99.90;;;;;;4870153;29;20025;-94
2023/05/11 05:16:17;;;;;;;7.93;5.63;;;9.50;99.90;;;;;;4870769;29;20029;-95
2023/05/11 05:18:43;;;;;;;16.90;6.30;;;9.50;99.90;;;;;;4874095;29;20025;-94
2023/05/11 05:21:09;;;;;;;10.30;6.05;;;9.50;99.90;;;;;;4872793;29;20029;-95
2023/05/11 05:23:34;;;;;;;12.85;6.10;;;9.60;99.90;;;;;;4868244;29;20172;-93
2023/05/11 05:26:00;;;;;;;13.88;6.75;;;9.60;99.90;;;;;;4873267;29;20061;-95
2023/05/11 05:28:26;;;;;;;12.02;6.25;;;9.60;99.90;;;;;;4879103;29;20032;-96
2023/05/11 05:30:53;;;;;;;13.95;7.07;;;9.60;99.90;;;;;;4873216;29;20037;-96
2023/05/11 05:33:19;;;;;;;11.25;6.85;;;9.70;99.90;;;;;;4867886;29;20033;-95
2023/05/11 05:35:46;;;;;;;10.65;5.95;;;9.70;99.90;;;;;;4868711;29;20108;-95
2023/05/11 05:38:11;;;;;;;11.20;6.43;;;9.70;99.90;;;;;;4867869;29;20076;-95
2023/05/11 05:40:38;;;;;;;13.02;7.03;;;9.80;99.90;;;;;;4867616;29;20025;-96
2023/05/11 05:43:05;;;;;;;11.15;6.18;;;9.80;99.90;;;;;;4868629;29;20033;-94
2023/05/11 05:45:30;;;;;;;15.50;6.93;;;9.80;99.90;;;;;;4867227;29;20398;-96
2023/05/11 05:47:59;;;;;;;11.65;6.28;;;9.80;99.90;;;;;;4867016;29;20037;-95
2023/05/11 05:50:25;;;;;;;13.52;6.70;;;9.80;99.90;;;;;;4869912;29;20035;-95
2023/05/11 05:52:52;;;;;;;13.50;6.63;;;9.90;99.90;;;;;;4867186;29;20052;-95
2023/05/11 05:55:17;;;;;;;11.65;7.28;;;9.90;99.90;;;;;;4864376;29;20036;-95
2023/05/11 05:57:43;;;;;;;18.00;7.88;;;9.90;99.90;;;;;;4864386;29;20056;-96
2023/05/11 06:00:10;;;;;;;12.00;7.32;;;9.90;99.90;;;;;;4867083;29;20039;-94
2023/05/11 06:02:35;;;;;;;12.10;7.38;;;9.90;99.90;;;;;;4866404;29;20489;-96
2023/05/11 06:05:01;;;;;;;14.18;7.40;;;10.00;99.90;;;;;;4867073;29;20036;-95
2023/05/11 06:07:27;;;;;;;13.45;7.95;;;10.00;99.90;;;;;;4869503;29;20033;-95
2023/05/11 06:09:53;;;;;;;17.63;10.27;;;10.00;99.90;;;;;;4853285;29;20029;-95
2023/05/11 06:12:19;;;;;;;11.57;8.63;;;10.00;99.90;;;;;;4868594;29;20380;-95
2023/05/11 06:14:45;;;;;;;15.77;7.97;;;10.10;99.90;;;;;;4875414;29;20052;-96
2023/05/11 06:17:12;;;;;;;12.13;7.47;;;10.10;99.90;;;;;;4873804;29;20044;-96
2023/05/11 06:19:41;;;;;;;13.05;7.38;;;10.10;99.90;;;;;;4871061;29;20132;-96
2023/05/11 06:22:07;;;;;;;10.73;7.45;;;10.10;99.90;;;;;;4873891;29;20032;-96
2023/05/11 06:24:33;;;;;;;10.82;7.57;;;10.20;99.90;;;;;;4872344;29;20033;-96
2023/05/11 06:27:00;;;;;;;14.70;8.98;;;10.20;99.90;;;;;;4871027;29;20032;-95
2023/05/11 06:29:25;;;;;;;11.70;8.15;;;10.20;99.90;;;;;;4858874;29;20132;-95
2023/05/11 06:31:53;;;;;;;15.85;8.82;;;10.20;99.90;;;;;;4885307;29;20040;-95
2023/05/11 06:34:22;;;;;;;16.92;9.38;;;10.30;99.90;;;;;;4887882;29;20553;-94
2023/05/11 06:36:48;;;;;;;12.98;8.43;;;10.30;99.90;;;;;;4880547;29;20029;-94
2023/05/11 06:39:14;;;;;;;15.88;8.80;;;10.30;99.90;;;;;;4889638;29;20032;-95
2023/05/11 06:41:40;;;;;;;14.23;8.77;;;10.30;99.90;;;;;;4884050;29;20120;-95
2023/05/11 06:44:07;;;;;;;23.92;9.57;;;10.40;99.90;;;;;;4886132;29;20056;-95
2023/05/11 06:46:33;;;;;;;16.80;10.07;;;10.40;99.90;;;;;;4869457;29;20514;-95
2023/05/11 06:48:59;;;;;;;16.02;9.93;;;10.40;99.90;;;;;;4878286;29;20058;-95
2023/05/11 06:51:25;;;;;;;18.63;9.77;;;10.50;99.90;;;;;;4888049;29;20044;-96
2023/05/11 06:53:52;;;;;;;20.58;11.13;;;10.50;99.90;;;;;;4884564;29;20025;-96
2023/05/11 06:56:18;;;;;;;21.38;11.45;;;10.60;99.90;;;;;;4886381;29;20040;-94
2023/05/11 06:58:44;;;;;;;25.50;12.10;;;10.70;99.90;;;;;;4872254;29;20120;-95
2023/05/11 07:01:10;;;;;;;21.80;12.02;;;10.80;99.90;;;;;;4883059;29;20033;-95
2023/05/11 07:03:36;;;;;;;29.58;12.68;;;10.90;99.90;;;;;;4885520;29;20039;-95
2023/05/11 07:06:02;;;;;;;21.58;12.02;;;10.90;99.90;;;;;;4875225;29;20140;-96
2023/05/11 07:08:28;;;;;;;22.58;12.82;;;11.00;99.90;;;;;;4881744;29;20102;-96
2023/05/11 07:10:54;;;;;;;21.88;12.55;;;11.10;99.90;;;;;;4874551;29;20502;-96
2023/05/11 07:13:20;;;;;;;25.50;13.02;;;11.10;99.90;;;;;;4880611;29;20045;-96
2023/05/11 07:15:49;;;;;;;22.25;12.07;;;11.20;99.90;;;;;;4881579;29;20037;-96
2023/05/11 07:18:15;;;;;;;21.70;11.65;;;11.20;99.90;;;;;;4885345;29;20084;-96
2023/05/11 07:20:41;;;;;;;18.20;11.52;;;11.30;99.90;;;;;;4875646;29;20068;-95
2023/05/11 07:23:07;;;;;;;19.95;12.10;;;11.40;99.90;;;;;;4869844;29;20037;-96
2023/05/11 07:25:33;;;;;;;19.23;10.63;;;11.50;99.90;;;;;;4886124;29;20040;-95
2023/05/11 07:27:58;;;;;;;20.58;11.13;;;11.50;99.90;;;;;;4889576;29;20076;-95
2023/05/11 07:30:24;;;;;;;23.67;12.05;;;11.50;99.90;;;;;;4885093;29;20036;-96
2023/05/11 07:32:51;;;;;;;21.02;10.82;;;11.50;99.90;;;;;;4904714;29;20068;-95
2023/05/11 07:35:17;;;;;;;23.48;11.73;;;11.50;99.90;;;;;;4890704;29;20037;-96
2023/05/11 07:37:42;;;;;;;20.77;10.90;;;11.60;99.90;;;;;;4886230;29;20032;-95
2023/05/11 07:40:08;;;;;;;15.82;10.38;;;11.60;99.90;;;;;;4885730;29;20025;-96
2023/05/11 07:42:34;;;;;;;15.05;10.50;;;11.60;99.90;;;;;;4884592;29;20036;-94
2023/05/11 07:45:01;;;;;;;18.02;10.98;;;11.60;99.90;;;;;;4884277;29;20089;-95
2023/05/11 07:47:27;;;;;;;17.83;10.65;;;11.60;99.90;;;;;;4878682;29;20024;-96
2023/05/11 07:49:52;;;;;;;20.95;11.00;;;11.70;99.90;;;;;;4889903;29;20025;-95
2023/05/11 07:52:18;;;;;;;17.42;10.10;;;11.70;99.90;;;;;;4873038;29;20052;-94
2023/05/11 07:54:44;;;;;;;19.20;10.40;;;11.70;99.90;;;;;;4870641;29;20024;-95
2023/05/11 07:57:10;;;;;;;19.50;10.05;;;11.70;99.90;;;;;;4860290;29;20098;-95
2023/05/11 07:59:37;;;;;;;19.15;9.63;;;11.80;99.90;;;;;;4892284;29;20024;-95
2023/05/11 08:02:08;;;;;;;14.43;9.45;;;11.80;99.90;;;;;;4876408;29;20025;-95
2023/05/11 08:04:33;;;;;;;;;;;11.80;99.90;;;;;;4876605;29;20029;-95
2023/05/11 08:06:59;;;;;;;18.40;9.05;;;11.80;99.90;;;;;;4878990;29;20317;-96
2023/05/11 08:09:25;;;;;;;19.10;11.13;;;11.80;99.90;;;;;;4881784;29;20028;-96
2023/05/11 08:11:52;;;;;;;22.35;10.23;;;11.80;99.90;;;;;;4878162;29;20033;-95
2023/05/11 08:14:17;;;;;;;11.68;7.88;;;11.80;99.90;;;;;;4875947;29;20101;-95
2023/05/11 08:16:43;;;;;;;9.52;6.88;;;11.80;99.90;;;;;;4875002;29;20057;-94
2023/05/11 08:19:10;;;;;;;9.82;7.32;;;11.80;99.90;;;;;;4875203;29;20084;-95
2023/05/11 08:21:36;;;;;;;10.55;6.68;;;11.80;99.90;;;;;;4873989;29;20032;-94
2023/05/11 08:24:02;;;;;;;13.90;7.43;;;11.80;99.90;;;;;;4877775;29;20036;-95
2023/05/11 08:26:27;;;;;;;9.18;5.32;;;11.70;99.90;;;;;;4876966;29;20375;-95
2023/05/11 08:28:53;;;;;;;8.88;5.60;;;11.70;99.90;;;;;;4876840;29;20060;-95
2023/05/11 08:31:18;;;;;;;7.43;5.13;;;11.70;99.90;;;;;;4873644;29;20041;-94
2023/05/11 08:33:44;;;;;;;3.22;2.88;;;11.70;99.90;;;;;;4876628;29;20482;-95
2023/05/11 08:36:12;;;;;;;4.28;3.42;;;11.70;99.90;;;;;;4877191;29;20503;-95
2023/05/11 08:38:38;;;;;;;6.18;3.50;;;11.70;99.90;;;;;;4879495;29;20032;-95
2023/05/11 08:41:04;;;;;;;7.68;4.47;;;11.80;99.90;;;;;;4885647;29;20111;-95
2023/05/11 08:43:33;;;;;;;6.82;4.68;;;11.80;99.90;;;;;;4885192;29;20237;-95
2023/05/11 08:46:03;;;;;;;6.80;4.53;;;11.80;99.90;;;;;;4885915;29;20367;-95
2023/05/11 08:48:31;;;;;;;5.78;4.28;;;11.80;99.90;;;;;;4888247;29;20057;-95
2023/05/11 08:50:58;;;;;;;8.95;4.13;;;11.80;99.90;;;;;;4889530;29;20039;-94
2023/05/11 08:53:23;;;;;;;8.13;4.10;;;11.80;99.90;;;;;;4892224;29;20028;-95
2023/05/11 08:55:50;;;;;;;5.78;3.58;;;11.80;99.90;;;;;;4882046;29;20057;-94
2023/05/11 08:58:21;;;;;;;5.72;3.45;;;11.80;99.90;;;;;;4871989;29;20061;-94
2023/05/11 09:00:50;;;;;;;;;;;11.80;99.90;;;;;;4888340;29;20090;-94
2023/05/11 09:03:18;;;;;;;5.10;3.40;;;11.80;99.90;;;;;;4875319;29;19919;-95
2023/05/11 09:05:45;;;;;;;4.13;3.40;;;11.90;99.90;;;;;;4868816;29;20040;-94
2023/05/11 09:08:13;;;;;;;4.68;2.70;;;11.90;99.90;;;;;;4877429;29;20025;-94
2023/05/11 09:10:38;;;;;;;3.63;3.22;;;11.90;99.90;;;;;;4876865;29;20033;-95
2023/05/11 09:13:05;;;;;;;6.53;3.75;;;12.00;99.90;;;;;;4874281;29;20032;-95
2023/05/11 09:15:31;;;;;;;6.72;4.07;;;12.00;99.90;;;;;;4892623;29;20037;-95
2023/05/11 09:17:57;;;;;;;6.20;3.22;;;12.00;99.90;;;;;;4877022;29;20492;-95
2023/05/11 09:20:46;;;;;;;5.40;2.20;;;12.00;99.90;;;;;;4870483;29;20029;-94
2023/05/11 09:23:19;;;;;;;4.40;2.50;;;12.10;99.90;;;;;;4867737;29;20487;-95
2023/05/11 09:25:44;;;;;;;2.75;2.47;;;12.20;99.90;;;;;;4870363;29;20044;-96
2023/05/11 09:28:12;;;;;;;4.50;2.65;;;12.30;99.90;;;;;;4871558;29;20060;-95
2023/05/11 09:30:37;;;;;;;5.05;2.60;;;12.40;99.90;;;;;;4865834;29;20386;-94
2023/05/11 09:33:03;;;;;;;3.58;2.17;;;12.60;99.90;;;;;;4865373;29;20037;-95
2023/05/11 09:35:31;;;;;;;2.55;2.35;;;12.70;99.90;;;;;;4865948;29;20029;-95
2023/05/11 09:38:11;;;;;;;2.70;2.50;;;12.70;99.90;;;;;;4866476;29;20060;-95
2023/05/11 09:40:37;;;;;;;4.25;2.55;;;12.80;99.90;;;;;;4867054;29;20077;-95
2023/05/11 09:43:21;;;;;;;2.55;2.10;;;12.90;99.90;;;;;;4868362;29;20060;-95
2023/05/11 09:45:50;;;;;;;2.35;1.58;;;13.10;99.90;;;;;;4879581;29;20495;-96
2023/05/11 09:48:16;;;;;;;2.75;1.80;;;13.20;99.90;;;;;;4864032;29;20057;-95
2023/05/11 09:50:42;;;;;;;3.25;2.00;;;13.30;99.90;;;;;;4880854;29;20028;-95
2023/05/11 09:53:08;;;;;;;1.90;1.73;;;13.40;99.90;;;;;;4865546;29;20048;-95
2023/05/11 09:55:35;;;;;;;5.38;2.20;;;13.50;99.90;;;;;;4865020;29;20025;-95
2023/05/11 09:58:01;;;;;;;3.83;1.98;;;13.60;99.90;;;;;;4869516;29;20057;-94
2023/05/11 10:00:26;;;;;;;4.93;1.90;;;13.60;99.90;;;;;;4865846;29;20490;-95
2023/05/11 10:03:04;;;;;;;3.20;1.90;;;13.70;99.90;;;;;;4883797;29;20039;-94
2023/05/11 10:05:36;;;;;;;2.90;2.30;;;13.80;99.90;;;;;;4871351;29;20124;-95
2023/05/11 10:08:03;;;;;;;2.72;1.98;;;14.00;99.90;;;;;;4867095;29;20029;-95
2023/05/11 10:10:31;;;;;;;2.33;1.77;;;14.10;99.90;;;;;;4883670;29;20020;-96
2023/05/11 10:12:59;;;;;;;3.10;2.22;;;14.10;99.90;;;;;;4883535;29;20040;-95
2023/05/11 10:15:27;;;;;;;2.55;1.98;;;14.20;99.90;;;;;;4883878;29;20467;-95
2023/05/11 10:17:57;;;;;;;2.50;1.70;;;14.20;99.90;;;;;;4886432;29;20035;-94
2023/05/11 10:20:24;;;;;;;2.78;1.70;;;14.30;99.90;;;;;;4883006;29;20190;-95
2023/05/11 10:22:54;;;;;;;2.78;1.70;;;14.40;99.90;;;;;;4867055;29;20037;-94
2023/05/11 10:25:25;;;;;;;2.38;2.17;;;14.40;99.90;;;;;;4864772;29;20037;-95
2023/05/11 10:27:52;;;;;;;3.35;2.10;;;14.50;99.90;;;;;;4863972;29;20486;-95
2023/05/11 10:30:18;;;;;;;2.35;1.90;;;14.60;99.90;;;;;;4864696;29;20373;-94
2023/05/11 10:32:48;;;;;;;2.90;1.63;;;14.70;99.90;;;;;;4864919;29;20037;-94
2023/05/11 10:35:13;;;;;;;4.13;2.17;;;14.70;99.90;;;;;;4864739;29;20029;-95
2023/05/11 10:37:42;;;;;;;2.95;2.05;;;14.80;99.90;;;;;;4864531;29;20040;-93
2023/05/11 10:40:10;;;;;;;3.13;1.55;;;14.80;99.90;;;;;;4867171;29;20056;-95
2023/05/11 10:43:00;;;;;;;1.58;1.40;;;14.80;99.90;;;;;;4868399;29;20021;-95
2023/05/11 10:45:44;;;;;;;2.92;1.50;;;14.80;99.90;;;;;;4867606;29;20037;-95
2023/05/11 10:48:41;;;;;;;4.10;1.52;;;14.80;99.90;;;;;;4864953;29;20564;-94
2023/05/11 10:51:07;;;;;;;10.02;2.10;;;14.80;99.90;;;;;;4864189;29;20041;-94
2023/05/11 10:53:53;;;;;;;4.50;1.30;;;14.80;99.90;;;;;;4865024;29;20081;-95
2023/05/11 10:56:56;;;;;;;3.97;1.45;;;14.70;99.90;;;;;;4865162;29;20032;-93
2023/05/11 10:59:40;;;;;;;1.80;1.38;;;14.80;99.90;;;;;;4885616;29;20053;-94
2023/05/11 11:02:07;;;;;;;2.03;1.52;;;14.70;99.90;;;;;;4865727;29;20033;-96
2023/05/11 11:05:04;;;;;;;5.70;1.50;;;14.70;99.90;;;;;;4868777;29;20138;-94
2023/05/11 11:07:30;;;;;;;2.83;1.40;;;14.60;99.90;;;;;;4865055;29;20029;-95
2023/05/11 11:10:06;;;;;;;6.93;1.52;;;14.60;99.90;;;;;;4851075;29;20150;-95
2023/05/11 11:12:33;;;;;;;1.50;1.40;;;14.60;99.90;;;;;;4866037;29;20048;-94
2023/05/11 11:15:03;;;;;;;2.97;1.60;;;14.60;99.90;;;;;;4868977;29;20116;-94
2023/05/11 11:17:33;;;;;;;4.20;1.70;;;14.60;99.90;;;;;;4872430;29;20101;-93
2023/05/11 11:20:00;;;;;;;;;;;14.60;99.90;;;;;;4880886;29;20147;-95
2023/05/11 11:22:39;;;;;;;1.88;1.60;;;14.60;99.90;;;;;;4879254;29;20358;-94
2023/05/11 11:25:07;;;;;;;2.83;1.63;;;14.50;99.90;;;;;;4874559;29;20104;-95
2023/05/11 11:27:39;;;;;;;1.83;1.42;;;14.50;99.90;;;;;;4870366;29;20064;-94
2023/05/11 11:30:18;;;;;;;3.92;1.45;;;14.50;99.90;;;;;;4872845;29;20033;-94
2023/05/11 11:32:48;;;;;;;3.88;1.42;;;14.50;99.90;;;;;;4873515;29;20044;-94
2023/05/11 11:35:39;;;;;;;1.50;1.40;;;14.50;99.90;;;;;;4871191;29;20025;-94
2023/05/11 11:38:05;;;;;;;;;;;14.60;99.90;;;;;;4874614;29;20037;-95
2023/05/11 11:40:51;;;;;;;3.17;1.45;;;14.70;99.90;;;;;;4876466;29;19914;-94
2023/05/11 11:43:18;;;;;;;3.15;1.60;;;14.80;99.90;;;;;;4872214;29;20040;-95
2023/05/11 11:45:54;;;;;;;1.70;1.45;;;14.80;99.90;;;;;;4876379;29;20045;-96
2023/05/11 11:48:30;;;;;;;2.13;1.00;;;14.90;99.90;;;;;;4874017;29;20071;-94
2023/05/11 11:51:12;;;;;;;1.25;1.05;;;15.00;99.90;;;;;;4877027;29;20025;-95
2023/05/11 11:53:52;;;;;;;2.53;1.08;;;15.00;99.90;;;;;;4878378;29;20044;-95
2023/05/11 11:56:23;;;;;;;1.90;0.63;;;15.20;99.90;;;;;;4881629;29;20033;-96
2023/05/11 12:33:08;;;;;;;0.38;0.30;;;18.60;99.90;;;;;;5557080;23;20037;-96
2023/05/11 12:35:43;;;;;;;0.28;0.28;;;18.90;99.90;;;;;;4945943;23;20068;-96
2023/05/11 12:38:10;;;;;;;0.75;0.45;;;19.20;99.90;;;;;;4905908;29;20047;-95
2023/05/11 12:43:20;;;;;;;1.42;0.82;;;19.60;99.90;;;;;;5583049;23;20027;-96
2023/05/11 12:51:01;;;;;;;2.67;0.38;;;19.80;99.90;;;;;;5357320;23;20075;-94
2023/05/11 12:53:35;;;;;;;0.30;0.30;;;19.80;99.40;;;;;;4921406;29;20047;-96
2023/05/11 12:56:05;;;;;;;0.73;0.30;;;19.60;98.40;;;;;;4919786;29;20046;-96
2023/05/11 12:58:41;;;;;;;0.35;0.35;;;19.50;98.60;;;;;;4916649;29;20024;-96
2023/05/11 13:01:10;;;;;;;0.88;0.40;;;19.40;98.30;;;;;;4918592;29;20032;-95
2023/05/11 13:03:50;;;;;;;1.33;0.40;;;19.50;97.80;;;;;;4923666;29;20091;-95
2023/05/11 13:06:31;;;;;;;1.05;0.40;;;19.40;97.20;;;;;;4934401;29;20028;-96
2023/05/11 13:08:58;;;;;;;0.88;0.45;;;19.50;96.90;;;;;;4913989;29;20028;-96
2023/05/11 13:11:27;;;;;;;0.88;0.50;;;19.50;96.00;;;;;;4915783;29;20036;-96
2023/05/11 13:13:55;;;;;;;2.05;0.40;;;19.50;95.60;;;;;;4916056;29;20036;-96
2023/05/11 13:16:32;;;;;;;1.30;0.40;;;19.70;95.30;;;;;;4908781;29;20028;-96
2023/05/11 13:19:04;;;;;;;1.52;0.40;;;19.70;94.40;;;;;;4921663;29;20052;-96
2023/05/11 13:21:31;;;;;;;0.60;0.40;;;19.50;93.80;;;;;;4920570;29;20055;-95
2023/05/11 13:23:58;;;;;;;0.38;0.20;;;19.40;93.80;;;;;;4915860;29;20155;-96
2023/05/11 13:26:30;;;;;;;1.00;0.38;;;19.20;93.50;;;;;;4913143;29;20052;-95
2023/05/11 13:28:56;;;;;;;0.40;0.40;;;19.20;93.90;;;;;;4916871;29;20043;-96
2023/05/11 13:31:22;;;;;;;0.30;0.30;;;19.20;93.90;;;;;;4910931;29;20028;-96
2023/05/11 13:33:51;;;;;;;1.55;0.30;;;19.20;93.80;;;;;;4911059;29;20055;-95
2023/05/11 13:36:19;;;;;;;0.20;0.20;;;19.20;93.70;;;;;;4915081;29;20119;-95